sensor_id;sensor_type;location;lat;lon;timestamp;P1;durP1;ratioP1;P2;durP2;ratioP2
13222;SDS011;6676;45.192;5.722;2022-09-20T00:00:30;6.83;;;3.08;;
13222;SDS011;6676;45.192;5.722;2022-09-20T00:03:22;8.55;;;2.10;;
13222;SDS011;6676;45.192;5.722;2022-09-20T00:06:15;6.55;;;2.40;;
13222;SDS011;6676;45.192;5.722;2022-09-20T00:09:08;3.58;;;2.15;;
13222;SDS011;6676;45.192;5.722;2022-09-20T00:14:39;4.30;;;2.50;;
13222;SDS011;6676;45.192;5.722;2022-09-20T00:17:30;5.08;;;2.00;;
13222;SDS011;6676;45.192;5.722;2022-09-20T00:20:22;7.03;;;2.00;;
13222;SDS011;6676;45.192;5.722;2022-09-20T00:23:14;6.85;;;2.22;;
13222;SDS011;6676;45.192;5.722;2022-09-20T00:26:06;5.40;;;1.98;;
13222;SDS011;6676;45.192;5.722;2022-09-20T00:28:57;6.87;;;2.00;;
13222;SDS011;6676;45.192;5.722;2022-09-20T00:31:49;4.95;;;2.35;;
13222;SDS011;6676;45.192;5.722;2022-09-20T00:34:30;4.15;;;1.80;;
13222;SDS011;6676;45.192;5.722;2022-09-20T00:37:39;3.12;;;1.35;;
13222;SDS011;6676;45.192;5.722;2022-09-20T00:40:32;5.30;;;1.60;;
13222;SDS011;6676;45.192;5.722;2022-09-20T00:43:34;2.95;;;1.35;;
13222;SDS011;6676;45.192;5.722;2022-09-20T00:46:28;4.65;;;1.42;;
13222;SDS011;6676;45.192;5.722;2022-09-20T00:49:24;5.00;;;1.55;;
13222;SDS011;6676;45.192;5.722;2022-09-20T00:52:05;3.72;;;1.42;;
13222;SDS011;6676;45.192;5.722;2022-09-20T00:54:57;3.12;;;1.30;;
13222;SDS011;6676;45.192;5.722;2022-09-20T00:57:52;2.87;;;1.22;;
13222;SDS011;6676;45.192;5.722;2022-09-20T01:00:44;4.15;;;1.75;;
13222;SDS011;6676;45.192;5.722;2022-09-20T01:03:37;5.83;;;1.30;;
13222;SDS011;6676;45.192;5.722;2022-09-20T01:06:30;3.70;;;1.42;;
13222;SDS011;6676;45.192;5.722;2022-09-20T01:09:23;5.78;;;1.35;;
13222;SDS011;6676;45.192;5.722;2022-09-20T01:12:17;3.70;;;1.15;;
13222;SDS011;6676;45.192;5.722;2022-09-20T01:15:10;6.20;;;1.27;;
13222;SDS011;6676;45.192;5.722;2022-09-20T01:18:03;2.58;;;1.07;;
13222;SDS011;6676;45.192;5.722;2022-09-20T01:20:56;3.20;;;1.20;;
13222;SDS011;6676;45.192;5.722;2022-09-20T01:23:53;4.33;;;1.17;;
13222;SDS011;6676;45.192;5.722;2022-09-20T01:29:35;5.20;;;1.45;;
13222;SDS011;6676;45.192;5.722;2022-09-20T01:32:34;4.05;;;1.50;;
13222;SDS011;6676;45.192;5.722;2022-09-20T01:35:28;4.10;;;1.60;;
13222;SDS011;6676;45.192;5.722;2022-09-20T01:38:26;5.47;;;1.50;;
13222;SDS011;6676;45.192;5.722;2022-09-20T01:41:20;4.03;;;1.62;;
13222;SDS011;6676;45.192;5.722;2022-09-20T01:44:15;6.25;;;1.57;;
13222;SDS011;6676;45.192;5.722;2022-09-20T01:46:55;4.78;;;1.50;;
13222;SDS011;6676;45.192;5.722;2022-09-20T01:49:50;4.15;;;1.40;;
13222;SDS011;6676;45.192;5.722;2022-09-20T01:56:38;4.17;;;1.40;;
13222;SDS011;6676;45.192;5.722;2022-09-20T02:06:28;4.90;;;1.42;;
13222;SDS011;6676;45.192;5.722;2022-09-20T02:09:37;6.35;;;1.50;;
13222;SDS011;6676;45.192;5.722;2022-09-20T02:12:54;4.50;;;1.00;;
13222;SDS011;6676;45.192;5.722;2022-09-20T02:15:55;3.45;;;1.22;;
13222;SDS011;6676;45.192;5.722;2022-09-20T02:18:57;4.80;;;1.47;;
13222;SDS011;6676;45.192;5.722;2022-09-20T02:22:09;2.72;;;1.20;;
13222;SDS011;6676;45.192;5.722;2022-09-20T02:25:22;4.70;;;1.10;;
13222;SDS011;6676;45.192;5.722;2022-09-20T02:28:23;3.72;;;1.02;;
13222;SDS011;6676;45.192;5.722;2022-09-20T02:37:37;2.05;;;1.02;;
13222;SDS011;6676;45.192;5.722;2022-09-20T02:40:59;4.20;;;1.07;;
13222;SDS011;6676;45.192;5.722;2022-09-20T02:44:06;2.15;;;0.93;;
13222;SDS011;6676;45.192;5.722;2022-09-20T02:46:59;4.08;;;1.20;;
13222;SDS011;6676;45.192;5.722;2022-09-20T02:49:56;3.17;;;1.00;;
13222;SDS011;6676;45.192;5.722;2022-09-20T02:55:46;2.22;;;0.75;;
13222;SDS011;6676;45.192;5.722;2022-09-20T02:58:45;3.80;;;0.98;;
13222;SDS011;6676;45.192;5.722;2022-09-20T03:01:42;3.98;;;1.17;;
13222;SDS011;6676;45.192;5.722;2022-09-20T03:04:38;4.28;;;1.02;;
13222;SDS011;6676;45.192;5.722;2022-09-20T03:07:38;3.30;;;0.90;;
13222;SDS011;6676;45.192;5.722;2022-09-20T03:10:36;3.40;;;1.30;;
13222;SDS011;6676;45.192;5.722;2022-09-20T03:13:37;2.22;;;1.00;;
13222;SDS011;6676;45.192;5.722;2022-09-20T03:16:30;4.22;;;1.10;;
13222;SDS011;6676;45.192;5.722;2022-09-20T03:19:26;2.05;;;1.00;;
13222;SDS011;6676;45.192;5.722;2022-09-20T03:25:08;3.17;;;0.98;;
13222;SDS011;6676;45.192;5.722;2022-09-20T03:28:13;2.72;;;0.90;;
13222;SDS011;6676;45.192;5.722;2022-09-20T03:31:10;2.87;;;0.70;;
13222;SDS011;6676;45.192;5.722;2022-09-20T03:34:07;2.45;;;0.93;;
13222;SDS011;6676;45.192;5.722;2022-09-20T03:40:01;3.55;;;1.15;;
13222;SDS011;6676;45.192;5.722;2022-09-20T03:43:02;3.55;;;0.93;;
13222;SDS011;6676;45.192;5.722;2022-09-20T03:46:00;11.15;;;1.32;;
13222;SDS011;6676;45.192;5.722;2022-09-20T03:49:18;3.00;;;1.42;;
13222;SDS011;6676;45.192;5.722;2022-09-20T03:52:27;3.50;;;1.40;;
13222;SDS011;6676;45.192;5.722;2022-09-20T03:55:37;2.62;;;1.10;;
13222;SDS011;6676;45.192;5.722;2022-09-20T03:58:49;3.70;;;1.45;;
13222;SDS011;6676;45.192;5.722;2022-09-20T04:01:52;2.33;;;1.12;;
13222;SDS011;6676;45.192;5.722;2022-09-20T04:04:51;5.03;;;1.30;;
13222;SDS011;6676;45.192;5.722;2022-09-20T04:07:49;4.62;;;1.10;;
13222;SDS011;6676;45.192;5.722;2022-09-20T04:13:37;4.87;;;1.57;;
13222;SDS011;6676;45.192;5.722;2022-09-20T04:16:33;2.62;;;1.35;;
13222;SDS011;6676;45.192;5.722;2022-09-20T04:19:16;2.80;;;1.22;;
13222;SDS011;6676;45.192;5.722;2022-09-20T04:22:08;3.42;;;1.32;;
13222;SDS011;6676;45.192;5.722;2022-09-20T04:25:03;3.35;;;1.30;;
13222;SDS011;6676;45.192;5.722;2022-09-20T04:27:59;3.05;;;1.27;;
13222;SDS011;6676;45.192;5.722;2022-09-20T04:30:54;5.03;;;1.37;;
13222;SDS011;6676;45.192;5.722;2022-09-20T04:33:48;1.85;;;1.12;;
13222;SDS011;6676;45.192;5.722;2022-09-20T04:39:56;4.22;;;1.30;;
13222;SDS011;6676;45.192;5.722;2022-09-20T04:43:13;3.47;;;1.42;;
13222;SDS011;6676;45.192;5.722;2022-09-20T04:46:37;3.00;;;1.55;;
13222;SDS011;6676;45.192;5.722;2022-09-20T04:49:45;2.92;;;1.20;;
13222;SDS011;6676;45.192;5.722;2022-09-20T04:53:06;2.60;;;1.80;;
13222;SDS011;6676;45.192;5.722;2022-09-20T04:56:07;4.25;;;1.60;;
13222;SDS011;6676;45.192;5.722;2022-09-20T04:59:06;4.00;;;1.32;;
13222;SDS011;6676;45.192;5.722;2022-09-20T05:08:57;2.95;;;1.75;;
13222;SDS011;6676;45.192;5.722;2022-09-20T05:17:49;3.00;;;1.42;;
13222;SDS011;6676;45.192;5.722;2022-09-20T05:20:53;4.10;;;1.90;;
13222;SDS011;6676;45.192;5.722;2022-09-20T05:24:02;2.80;;;1.43;;
13222;SDS011;6676;45.192;5.722;2022-09-20T05:27:08;5.05;;;1.30;;
13222;SDS011;6676;45.192;5.722;2022-09-20T05:30:04;5.92;;;2.10;;
13222;SDS011;6676;45.192;5.722;2022-09-20T05:33:03;4.58;;;1.65;;
13222;SDS011;6676;45.192;5.722;2022-09-20T05:36:03;2.87;;;1.47;;
13222;SDS011;6676;45.192;5.722;2022-09-20T05:38:57;3.08;;;1.85;;
13222;SDS011;6676;45.192;5.722;2022-09-20T05:41:53;5.72;;;2.22;;
13222;SDS011;6676;45.192;5.722;2022-09-20T05:44:52;3.52;;;1.87;;
13222;SDS011;6676;45.192;5.722;2022-09-20T05:47:47;4.42;;;1.75;;
13222;SDS011;6676;45.192;5.722;2022-09-20T05:50:44;4.25;;;1.70;;
13222;SDS011;6676;45.192;5.722;2022-09-20T05:53:47;2.37;;;1.27;;
13222;SDS011;6676;45.192;5.722;2022-09-20T05:57:10;3.95;;;1.77;;
13222;SDS011;6676;45.192;5.722;2022-09-20T06:00:08;4.62;;;1.72;;
13222;SDS011;6676;45.192;5.722;2022-09-20T06:03:04;4.30;;;1.80;;
13222;SDS011;6676;45.192;5.722;2022-09-20T06:05:52;3.52;;;1.77;;
13222;SDS011;6676;45.192;5.722;2022-09-20T06:08:50;4.45;;;1.90;;
13222;SDS011;6676;45.192;5.722;2022-09-20T06:12:24;5.10;;;1.92;;
13222;SDS011;6676;45.192;5.722;2022-09-20T06:15:25;3.70;;;1.60;;
13222;SDS011;6676;45.192;5.722;2022-09-20T06:18:21;4.95;;;1.60;;
13222;SDS011;6676;45.192;5.722;2022-09-20T06:21:22;6.78;;;1.50;;
13222;SDS011;6676;45.192;5.722;2022-09-20T06:24:14;11.45;;;1.98;;
13222;SDS011;6676;45.192;5.722;2022-09-20T06:30:02;6.58;;;1.20;;
13222;SDS011;6676;45.192;5.722;2022-09-20T06:32:58;5.58;;;1.90;;
13222;SDS011;6676;45.192;5.722;2022-09-20T06:35:52;5.00;;;1.57;;
13222;SDS011;6676;45.192;5.722;2022-09-20T06:38:49;7.12;;;1.80;;
13222;SDS011;6676;45.192;5.722;2022-09-20T06:42:01;5.03;;;1.80;;
13222;SDS011;6676;45.192;5.722;2022-09-20T06:44:53;4.67;;;1.50;;
13222;SDS011;6676;45.192;5.722;2022-09-20T06:47:45;11.40;;;2.72;;
13222;SDS011;6676;45.192;5.722;2022-09-20T06:50:37;4.60;;;1.70;;
13222;SDS011;6676;45.192;5.722;2022-09-20T06:53:31;4.53;;;1.60;;
13222;SDS011;6676;45.192;5.722;2022-09-20T06:56:25;5.28;;;1.90;;
13222;SDS011;6676;45.192;5.722;2022-09-20T06:59:18;2.70;;;1.60;;
13222;SDS011;6676;45.192;5.722;2022-09-20T07:02:10;4.33;;;1.60;;
13222;SDS011;6676;45.192;5.722;2022-09-20T07:05:01;4.20;;;1.70;;
13222;SDS011;6676;45.192;5.722;2022-09-20T07:07:56;6.62;;;1.77;;
13222;SDS011;6676;45.192;5.722;2022-09-20T07:10:47;6.10;;;2.30;;
13222;SDS011;6676;45.192;5.722;2022-09-20T07:16:18;3.33;;;1.55;;
13222;SDS011;6676;45.192;5.722;2022-09-20T07:19:09;3.70;;;1.60;;
13222;SDS011;6676;45.192;5.722;2022-09-20T07:22:00;3.58;;;1.60;;
13222;SDS011;6676;45.192;5.722;2022-09-20T07:24:52;2.83;;;1.22;;
13222;SDS011;6676;45.192;5.722;2022-09-20T07:27:44;4.15;;;1.85;;
13222;SDS011;6676;45.192;5.722;2022-09-20T07:30:36;3.22;;;1.70;;
13222;SDS011;6676;45.192;5.722;2022-09-20T07:33:27;4.37;;;1.60;;
13222;SDS011;6676;45.192;5.722;2022-09-20T07:36:20;3.37;;;1.77;;
13222;SDS011;6676;45.192;5.722;2022-09-20T07:41:51;3.58;;;1.75;;
13222;SDS011;6676;45.192;5.722;2022-09-20T07:44:32;6.30;;;1.50;;
13222;SDS011;6676;45.192;5.722;2022-09-20T07:50:04;5.12;;;1.57;;
13222;SDS011;6676;45.192;5.722;2022-09-20T07:52:57;5.65;;;2.00;;
13222;SDS011;6676;45.192;5.722;2022-09-20T07:56:01;5.37;;;2.42;;
13222;SDS011;6676;45.192;5.722;2022-09-20T07:58:54;7.40;;;1.92;;
13222;SDS011;6676;45.192;5.722;2022-09-20T08:01:47;4.20;;;1.50;;
13222;SDS011;6676;45.192;5.722;2022-09-20T08:04:39;4.53;;;1.60;;
13222;SDS011;6676;45.192;5.722;2022-09-20T08:07:30;6.65;;;1.95;;
13222;SDS011;6676;45.192;5.722;2022-09-20T08:10:22;2.00;;;1.42;;
13222;SDS011;6676;45.192;5.722;2022-09-20T08:15:59;2.42;;;1.22;;
13222;SDS011;6676;45.192;5.722;2022-09-20T08:18:51;4.62;;;1.20;;
13222;SDS011;6676;45.192;5.722;2022-09-20T08:21:46;2.77;;;1.17;;
13222;SDS011;6676;45.192;5.722;2022-09-20T08:24:40;4.75;;;1.50;;
13222;SDS011;6676;45.192;5.722;2022-09-20T08:30:10;2.85;;;1.40;;
13222;SDS011;6676;45.192;5.722;2022-09-20T08:33:02;5.95;;;1.77;;
13222;SDS011;6676;45.192;5.722;2022-09-20T08:35:54;2.45;;;0.98;;
13222;SDS011;6676;45.192;5.722;2022-09-20T08:38:45;2.62;;;1.17;;
13222;SDS011;6676;45.192;5.722;2022-09-20T08:41:41;2.90;;;0.93;;
13222;SDS011;6676;45.192;5.722;2022-09-20T08:44:38;5.80;;;1.30;;
13222;SDS011;6676;45.192;5.722;2022-09-20T08:47:33;2.58;;;1.00;;
13222;SDS011;6676;45.192;5.722;2022-09-20T08:50:27;3.80;;;1.32;;
13222;SDS011;6676;45.192;5.722;2022-09-20T08:55:57;3.25;;;1.30;;
13222;SDS011;6676;45.192;5.722;2022-09-20T08:58:51;4.15;;;1.25;;
13222;SDS011;6676;45.192;5.722;2022-09-20T09:01:45;3.22;;;1.22;;
13222;SDS011;6676;45.192;5.722;2022-09-20T09:04:37;2.08;;;1.20;;
13222;SDS011;6676;45.192;5.722;2022-09-20T09:07:29;2.80;;;1.10;;
13222;SDS011;6676;45.192;5.722;2022-09-20T09:10:21;2.45;;;1.07;;
13222;SDS011;6676;45.192;5.722;2022-09-20T09:13:19;3.45;;;1.22;;
13222;SDS011;6676;45.192;5.722;2022-09-20T09:16:13;4.35;;;1.35;;
13222;SDS011;6676;45.192;5.722;2022-09-20T09:19:28;4.50;;;1.12;;
13222;SDS011;6676;45.192;5.722;2022-09-20T09:22:23;1.92;;;1.20;;
13222;SDS011;6676;45.192;5.722;2022-09-20T09:25:07;2.17;;;1.00;;
13222;SDS011;6676;45.192;5.722;2022-09-20T09:28:11;2.80;;;1.47;;
13222;SDS011;6676;45.192;5.722;2022-09-20T09:31:18;2.25;;;1.15;;
13222;SDS011;6676;45.192;5.722;2022-09-20T09:34:22;3.05;;;1.35;;
13222;SDS011;6676;45.192;5.722;2022-09-20T09:37:24;4.33;;;1.52;;
13222;SDS011;6676;45.192;5.722;2022-09-20T09:40:18;3.05;;;1.35;;
13222;SDS011;6676;45.192;5.722;2022-09-20T09:43:14;5.65;;;1.20;;
13222;SDS011;6676;45.192;5.722;2022-09-20T09:46:18;2.80;;;1.22;;
13222;SDS011;6676;45.192;5.722;2022-09-20T09:49:12;2.27;;;1.00;;
13222;SDS011;6676;45.192;5.722;2022-09-20T09:54:46;5.80;;;1.60;;
13222;SDS011;6676;45.192;5.722;2022-09-20T09:57:41;1.42;;;0.70;;
13222;SDS011;6676;45.192;5.722;2022-09-20T10:00:36;3.40;;;1.00;;
13222;SDS011;6676;45.192;5.722;2022-09-20T10:03:38;2.20;;;0.95;;
13222;SDS011;6676;45.192;5.722;2022-09-20T10:06:36;3.47;;;0.80;;
13222;SDS011;6676;45.192;5.722;2022-09-20T10:09:35;2.22;;;1.00;;
13222;SDS011;6676;45.192;5.722;2022-09-20T10:12:37;2.27;;;0.90;;
13222;SDS011;6676;45.192;5.722;2022-09-20T10:15:35;3.20;;;1.15;;
13222;SDS011;6676;45.192;5.722;2022-09-20T10:18:33;3.77;;;1.10;;
13222;SDS011;6676;45.192;5.722;2022-09-20T10:21:30;5.55;;;1.07;;
13222;SDS011;6676;45.192;5.722;2022-09-20T10:24:28;2.37;;;0.93;;
13222;SDS011;6676;45.192;5.722;2022-09-20T10:27:28;3.67;;;0.98;;
13222;SDS011;6676;45.192;5.722;2022-09-20T10:30:11;3.17;;;0.90;;
13222;SDS011;6676;45.192;5.722;2022-09-20T10:35:51;4.42;;;1.02;;
13222;SDS011;6676;45.192;5.722;2022-09-20T10:38:49;2.30;;;1.00;;
13222;SDS011;6676;45.192;5.722;2022-09-20T10:41:55;4.53;;;0.78;;
13222;SDS011;6676;45.192;5.722;2022-09-20T10:45:09;4.62;;;1.30;;
13222;SDS011;6676;45.192;5.722;2022-09-20T10:50:44;2.00;;;0.85;;
13222;SDS011;6676;45.192;5.722;2022-09-20T10:53:37;5.28;;;0.88;;
13222;SDS011;6676;45.192;5.722;2022-09-20T10:56:32;2.52;;;0.80;;
13222;SDS011;6676;45.192;5.722;2022-09-20T10:59:17;3.83;;;1.20;;
13222;SDS011;6676;45.192;5.722;2022-09-20T11:02:15;4.35;;;1.00;;
13222;SDS011;6676;45.192;5.722;2022-09-20T11:05:01;2.10;;;1.10;;
13222;SDS011;6676;45.192;5.722;2022-09-20T11:08:10;2.47;;;0.88;;
13222;SDS011;6676;45.192;5.722;2022-09-20T11:11:06;2.62;;;1.02;;
13222;SDS011;6676;45.192;5.722;2022-09-20T11:14:02;2.90;;;0.80;;
13222;SDS011;6676;45.192;5.722;2022-09-20T11:16:56;2.20;;;0.70;;
13222;SDS011;6676;45.192;5.722;2022-09-20T11:19:39;2.55;;;0.80;;
13222;SDS011;6676;45.192;5.722;2022-09-20T11:25:12;3.08;;;0.90;;
13222;SDS011;6676;45.192;5.722;2022-09-20T11:30:54;2.50;;;0.90;;
13222;SDS011;6676;45.192;5.722;2022-09-20T11:33:49;2.95;;;1.20;;
13222;SDS011;6676;45.192;5.722;2022-09-20T11:36:44;1.95;;;0.82;;
13222;SDS011;6676;45.192;5.722;2022-09-20T11:42:35;1.37;;;0.98;;
13222;SDS011;6676;45.192;5.722;2022-09-20T11:45:16;1.70;;;0.90;;
13222;SDS011;6676;45.192;5.722;2022-09-20T11:48:25;2.10;;;0.98;;
13222;SDS011;6676;45.192;5.722;2022-09-20T11:51:46;3.17;;;1.12;;
13222;SDS011;6676;45.192;5.722;2022-09-20T11:58:02;1.92;;;1.20;;
13222;SDS011;6676;45.192;5.722;2022-09-20T12:00:56;2.02;;;0.80;;
13222;SDS011;6676;45.192;5.722;2022-09-20T12:03:49;2.70;;;0.70;;
13222;SDS011;6676;45.192;5.722;2022-09-20T12:06:45;2.17;;;0.70;;
13222;SDS011;6676;45.192;5.722;2022-09-20T12:09:39;2.30;;;0.90;;
13222;SDS011;6676;45.192;5.722;2022-09-20T12:12:34;2.12;;;1.05;;
13222;SDS011;6676;45.192;5.722;2022-09-20T12:15:36;1.98;;;0.75;;
13222;SDS011;6676;45.192;5.722;2022-09-20T12:18:32;3.25;;;1.07;;
13222;SDS011;6676;45.192;5.722;2022-09-20T12:21:28;2.30;;;1.12;;
13222;SDS011;6676;45.192;5.722;2022-09-20T12:24:21;2.77;;;1.10;;
13222;SDS011;6676;45.192;5.722;2022-09-20T12:27:21;2.90;;;0.72;;
13222;SDS011;6676;45.192;5.722;2022-09-20T12:30:33;1.27;;;0.88;;
13222;SDS011;6676;45.192;5.722;2022-09-20T12:33:29;1.77;;;0.80;;
13222;SDS011;6676;45.192;5.722;2022-09-20T12:36:30;2.58;;;0.82;;
13222;SDS011;6676;45.192;5.722;2022-09-20T12:39:24;2.67;;;0.70;;
13222;SDS011;6676;45.192;5.722;2022-09-20T12:42:23;2.40;;;0.88;;
13222;SDS011;6676;45.192;5.722;2022-09-20T12:45:20;1.67;;;0.80;;
13222;SDS011;6676;45.192;5.722;2022-09-20T12:48:14;2.35;;;0.75;;
13222;SDS011;6676;45.192;5.722;2022-09-20T12:51:16;3.50;;;0.93;;
13222;SDS011;6676;45.192;5.722;2022-09-20T12:54:31;4.83;;;0.82;;
13222;SDS011;6676;45.192;5.722;2022-09-20T12:57:16;2.55;;;1.00;;
13222;SDS011;6676;45.192;5.722;2022-09-20T13:00:26;2.05;;;0.72;;
13222;SDS011;6676;45.192;5.722;2022-09-20T13:03:27;1.70;;;0.60;;
13222;SDS011;6676;45.192;5.722;2022-09-20T13:06:23;4.15;;;0.70;;
13222;SDS011;6676;45.192;5.722;2022-09-20T13:09:15;3.52;;;0.75;;
13222;SDS011;6676;45.192;5.722;2022-09-20T13:14:45;3.00;;;0.70;;
13222;SDS011;6676;45.192;5.722;2022-09-20T13:20:18;3.25;;;1.10;;
13222;SDS011;6676;45.192;5.722;2022-09-20T13:23:19;1.52;;;0.60;;
13222;SDS011;6676;45.192;5.722;2022-09-20T13:26:00;2.35;;;0.98;;
13222;SDS011;6676;45.192;5.722;2022-09-20T13:28:57;2.80;;;0.80;;
13222;SDS011;6676;45.192;5.722;2022-09-20T13:31:49;2.90;;;1.05;;
13222;SDS011;6676;45.192;5.722;2022-09-20T13:34:43;3.60;;;0.80;;
13222;SDS011;6676;45.192;5.722;2022-09-20T13:40:17;2.35;;;0.90;;
13222;SDS011;6676;45.192;5.722;2022-09-20T13:43:15;4.78;;;1.05;;
13222;SDS011;6676;45.192;5.722;2022-09-20T13:46:13;1.40;;;0.70;;
13222;SDS011;6676;45.192;5.722;2022-09-20T13:51:50;3.40;;;0.80;;
13222;SDS011;6676;45.192;5.722;2022-09-20T13:54:43;2.52;;;0.70;;
13222;SDS011;6676;45.192;5.722;2022-09-20T14:00:16;1.52;;;0.80;;
13222;SDS011;6676;45.192;5.722;2022-09-20T14:03:11;2.10;;;0.80;;
13222;SDS011;6676;45.192;5.722;2022-09-20T14:06:06;2.02;;;0.60;;
13222;SDS011;6676;45.192;5.722;2022-09-20T14:09:01;1.77;;;0.65;;
13222;SDS011;6676;45.192;5.722;2022-09-20T14:11:57;3.12;;;1.00;;
13222;SDS011;6676;45.192;5.722;2022-09-20T14:14:39;3.85;;;0.90;;
13222;SDS011;6676;45.192;5.722;2022-09-20T14:17:31;2.47;;;0.90;;
13222;SDS011;6676;45.192;5.722;2022-09-20T14:20:24;1.95;;;0.68;;
13222;SDS011;6676;45.192;5.722;2022-09-20T14:26:20;7.00;;;1.12;;
13222;SDS011;6676;45.192;5.722;2022-09-20T14:29:33;1.95;;;0.68;;
13222;SDS011;6676;45.192;5.722;2022-09-20T14:35:17;1.65;;;0.60;;
13222;SDS011;6676;45.192;5.722;2022-09-20T14:40:49;2.37;;;0.80;;
13222;SDS011;6676;45.192;5.722;2022-09-20T14:43:41;2.10;;;0.80;;
13222;SDS011;6676;45.192;5.722;2022-09-20T14:46:33;4.22;;;0.70;;
13222;SDS011;6676;45.192;5.722;2022-09-20T14:49:31;1.47;;;0.60;;
13222;SDS011;6676;45.192;5.722;2022-09-20T14:55:18;2.50;;;0.90;;
13222;SDS011;6676;45.192;5.722;2022-09-20T14:58:15;3.37;;;0.80;;
13222;SDS011;6676;45.192;5.722;2022-09-20T15:01:15;1.67;;;0.80;;
13222;SDS011;6676;45.192;5.722;2022-09-20T15:04:08;2.47;;;0.70;;
13222;SDS011;6676;45.192;5.722;2022-09-20T15:09:42;2.35;;;0.82;;
13222;SDS011;6676;45.192;5.722;2022-09-20T15:12:33;2.42;;;0.72;;
13222;SDS011;6676;45.192;5.722;2022-09-20T15:15:24;2.17;;;0.90;;
13222;SDS011;6676;45.192;5.722;2022-09-20T15:18:18;1.87;;;1.00;;
13222;SDS011;6676;45.192;5.722;2022-09-20T15:21:10;1.92;;;0.80;;
13222;SDS011;6676;45.192;5.722;2022-09-20T15:24:02;1.85;;;0.90;;
13222;SDS011;6676;45.192;5.722;2022-09-20T15:26:53;1.65;;;0.80;;
13222;SDS011;6676;45.192;5.722;2022-09-20T15:29:52;1.77;;;0.80;;
13222;SDS011;6676;45.192;5.722;2022-09-20T15:32:43;3.20;;;0.68;;
13222;SDS011;6676;45.192;5.722;2022-09-20T15:35:35;2.58;;;1.07;;
13222;SDS011;6676;45.192;5.722;2022-09-20T15:38:27;3.25;;;1.30;;
13222;SDS011;6676;45.192;5.722;2022-09-20T15:41:19;2.37;;;1.10;;
13222;SDS011;6676;45.192;5.722;2022-09-20T15:44:12;2.70;;;1.00;;
13222;SDS011;6676;45.192;5.722;2022-09-20T15:47:05;3.40;;;1.25;;
13222;SDS011;6676;45.192;5.722;2022-09-20T15:49:58;1.15;;;0.70;;
13222;SDS011;6676;45.192;5.722;2022-09-20T15:52:50;2.25;;;1.15;;
13222;SDS011;6676;45.192;5.722;2022-09-20T15:55:43;1.90;;;0.82;;
13222;SDS011;6676;45.192;5.722;2022-09-20T15:58:35;2.47;;;0.75;;
13222;SDS011;6676;45.192;5.722;2022-09-20T16:01:27;2.02;;;0.90;;
13222;SDS011;6676;45.192;5.722;2022-09-20T16:04:20;1.87;;;0.95;;
13222;SDS011;6676;45.192;5.722;2022-09-20T16:09:53;2.15;;;0.95;;
13222;SDS011;6676;45.192;5.722;2022-09-20T16:12:45;3.75;;;1.15;;
13222;SDS011;6676;45.192;5.722;2022-09-20T16:15:37;3.85;;;1.12;;
13222;SDS011;6676;45.192;5.722;2022-09-20T16:21:14;2.75;;;0.98;;
13222;SDS011;6676;45.192;5.722;2022-09-20T16:24:06;1.98;;;0.80;;
13222;SDS011;6676;45.192;5.722;2022-09-20T16:29:50;4.92;;;1.05;;
13222;SDS011;6676;45.192;5.722;2022-09-20T16:32:43;3.05;;;1.00;;
13222;SDS011;6676;45.192;5.722;2022-09-20T16:35:41;3.70;;;0.75;;
13222;SDS011;6676;45.192;5.722;2022-09-20T16:38:33;2.72;;;1.07;;
13222;SDS011;6676;45.192;5.722;2022-09-20T16:41:26;3.83;;;0.90;;
13222;SDS011;6676;45.192;5.722;2022-09-20T16:44:19;5.00;;;1.00;;
13222;SDS011;6676;45.192;5.722;2022-09-20T16:49:59;5.35;;;0.98;;
13222;SDS011;6676;45.192;5.722;2022-09-20T16:55:29;3.85;;;1.07;;
13222;SDS011;6676;45.192;5.722;2022-09-20T16:58:25;3.33;;;1.00;;
13222;SDS011;6676;45.192;5.722;2022-09-20T17:01:17;2.72;;;1.00;;
13222;SDS011;6676;45.192;5.722;2022-09-20T17:04:08;4.75;;;1.15;;
13222;SDS011;6676;45.192;5.722;2022-09-20T17:07:02;3.67;;;0.95;;
13222;SDS011;6676;45.192;5.722;2022-09-20T17:09:41;4.22;;;0.95;;
13222;SDS011;6676;45.192;5.722;2022-09-20T17:12:33;2.47;;;0.90;;
13222;SDS011;6676;45.192;5.722;2022-09-20T17:15:26;2.62;;;0.75;;
13222;SDS011;6676;45.192;5.722;2022-09-20T17:18:17;2.65;;;0.95;;
13222;SDS011;6676;45.192;5.722;2022-09-20T17:21:09;2.65;;;1.00;;
13222;SDS011;6676;45.192;5.722;2022-09-20T17:24:02;3.37;;;0.85;;
13222;SDS011;6676;45.192;5.722;2022-09-20T17:26:56;2.92;;;1.00;;
13222;SDS011;6676;45.192;5.722;2022-09-20T17:29:48;3.00;;;0.93;;
13222;SDS011;6676;45.192;5.722;2022-09-20T17:35:26;2.72;;;1.00;;
13222;SDS011;6676;45.192;5.722;2022-09-20T17:38:19;4.28;;;1.10;;
13222;SDS011;6676;45.192;5.722;2022-09-20T17:41:12;3.62;;;0.75;;
13222;SDS011;6676;45.192;5.722;2022-09-20T17:44:05;4.05;;;1.05;;
13222;SDS011;6676;45.192;5.722;2022-09-20T17:46:57;4.83;;;1.25;;
13222;SDS011;6676;45.192;5.722;2022-09-20T17:49:49;1.80;;;1.00;;
13222;SDS011;6676;45.192;5.722;2022-09-20T17:55:20;3.35;;;1.02;;
13222;SDS011;6676;45.192;5.722;2022-09-20T18:00:50;1.87;;;0.70;;
13222;SDS011;6676;45.192;5.722;2022-09-20T18:03:46;3.15;;;1.10;;
13222;SDS011;6676;45.192;5.722;2022-09-20T18:06:39;2.98;;;0.90;;
13222;SDS011;6676;45.192;5.722;2022-09-20T18:09:31;1.95;;;0.75;;
13222;SDS011;6676;45.192;5.722;2022-09-20T18:15:01;5.25;;;0.88;;
13222;SDS011;6676;45.192;5.722;2022-09-20T18:17:54;3.45;;;0.60;;
13222;SDS011;6676;45.192;5.722;2022-09-20T18:20:45;6.03;;;0.85;;
13222;SDS011;6676;45.192;5.722;2022-09-20T18:23:36;2.80;;;0.90;;
13222;SDS011;6676;45.192;5.722;2022-09-20T18:26:28;1.60;;;0.78;;
13222;SDS011;6676;45.192;5.722;2022-09-20T18:31:58;4.25;;;0.80;;
13222;SDS011;6676;45.192;5.722;2022-09-20T18:34:50;3.30;;;0.80;;
13222;SDS011;6676;45.192;5.722;2022-09-20T18:37:41;1.37;;;0.70;;
13222;SDS011;6676;45.192;5.722;2022-09-20T18:40:33;3.62;;;0.65;;
13222;SDS011;6676;45.192;5.722;2022-09-20T18:43:26;2.65;;;0.60;;
13222;SDS011;6676;45.192;5.722;2022-09-20T18:46:18;3.17;;;0.88;;
13222;SDS011;6676;45.192;5.722;2022-09-20T18:49:12;2.02;;;0.90;;
13222;SDS011;6676;45.192;5.722;2022-09-20T18:52:04;3.70;;;0.78;;
13222;SDS011;6676;45.192;5.722;2022-09-20T18:54:57;5.50;;;0.82;;
13222;SDS011;6676;45.192;5.722;2022-09-20T18:57:50;5.03;;;0.93;;
13222;SDS011;6676;45.192;5.722;2022-09-20T19:00:43;2.52;;;0.60;;
13222;SDS011;6676;45.192;5.722;2022-09-20T19:03:39;3.10;;;0.60;;
13222;SDS011;6676;45.192;5.722;2022-09-20T19:06:37;2.92;;;0.70;;
13222;SDS011;6676;45.192;5.722;2022-09-20T19:09:32;3.42;;;0.68;;
13222;SDS011;6676;45.192;5.722;2022-09-20T19:14:58;2.35;;;0.62;;
13222;SDS011;6676;45.192;5.722;2022-09-20T19:20:36;1.90;;;0.60;;
13222;SDS011;6676;45.192;5.722;2022-09-20T19:23:34;3.55;;;0.70;;
13222;SDS011;6676;45.192;5.722;2022-09-20T19:26:30;3.87;;;0.80;;
13222;SDS011;6676;45.192;5.722;2022-09-20T19:29:26;3.42;;;0.60;;
13222;SDS011;6676;45.192;5.722;2022-09-20T19:32:18;3.70;;;0.60;;
13222;SDS011;6676;45.192;5.722;2022-09-20T19:34:59;3.58;;;0.70;;
13222;SDS011;6676;45.192;5.722;2022-09-20T19:37:55;2.08;;;0.70;;
13222;SDS011;6676;45.192;5.722;2022-09-20T19:40:52;1.62;;;0.70;;
13222;SDS011;6676;45.192;5.722;2022-09-20T19:43:50;2.72;;;0.50;;
13222;SDS011;6676;45.192;5.722;2022-09-20T19:46:55;1.80;;;0.60;;
13222;SDS011;6676;45.192;5.722;2022-09-20T19:49:51;2.72;;;0.80;;
13222;SDS011;6676;45.192;5.722;2022-09-20T19:55:25;2.22;;;0.55;;
13222;SDS011;6676;45.192;5.722;2022-09-20T19:58:18;2.33;;;0.57;;
13222;SDS011;6676;45.192;5.722;2022-09-20T20:01:12;4.47;;;0.62;;
13222;SDS011;6676;45.192;5.722;2022-09-20T20:04:05;2.22;;;0.75;;
13222;SDS011;6676;45.192;5.722;2022-09-20T20:07:00;0.80;;;0.30;;
13222;SDS011;6676;45.192;5.722;2022-09-20T20:09:56;0.95;;;0.50;;
13222;SDS011;6676;45.192;5.722;2022-09-20T20:12:52;0.80;;;0.50;;
13222;SDS011;6676;45.192;5.722;2022-09-20T20:18:28;1.47;;;0.72;;
13222;SDS011;6676;45.192;5.722;2022-09-20T20:21:24;2.60;;;0.75;;
13222;SDS011;6676;45.192;5.722;2022-09-20T20:24:21;2.15;;;0.50;;
13222;SDS011;6676;45.192;5.722;2022-09-20T20:29:57;3.37;;;0.78;;